sensor_id;sensor_type;location;lat;lon;timestamp;pressure;altitude;pressure_sealevel;temperature;humidity
8477;BME280;4275;42.854;23.222;2022-07-15T00:01:57;55844.97;;;-141.02;100.00
8477;BME280;4275;42.854;23.222;2022-07-15T00:04:24;55844.97;;;-141.02;100.00
8477;BME280;4275;42.854;23.222;2022-07-15T00:06:51;55844.97;;;-141.02;100.00
8477;BME280;4275;42.854;23.222;2022-07-15T00:09:20;55844.97;;;-141.02;100.00
8477;BME280;4275;42.854;23.222;2022-07-15T00:12:07;55844.97;;;-141.02;100.00
8477;BME280;4275;42.854;23.222;2022-07-15T00:14:34;55844.97;;;-141.02;100.00
8477;BME280;4275;42.854;23.222;2022-07-15T00:17:01;55844.97;;;-141.02;100.00
8477;BME280;4275;42.854;23.222;2022-07-15T00:19:28;55844.97;;;-141.02;100.00
8477;BME280;4275;42.854;23.222;2022-07-15T00:21:56;55844.97;;;-141.02;100.00
8477;BME280;4275;42.854;23.222;2022-07-15T00:24:24;55844.97;;;-141.02;100.00
8477;BME280;4275;42.854;23.222;2022-07-15T00:26:51;55844.97;;;-141.02;100.00
8477;BME280;4275;42.854;23.222;2022-07-15T00:29:18;55844.97;;;-141.02;100.00
8477;BME280;4275;42.854;23.222;2022-07-15T00:31:45;55844.97;;;-141.02;100.00
8477;BME280;4275;42.854;23.222;2022-07-15T00:34:12;55844.97;;;-141.02;100.00
8477;BME280;4275;42.854;23.222;2022-07-15T00:36:39;55844.97;;;-141.02;100.00
8477;BME280;4275;42.854;23.222;2022-07-15T00:39:06;55844.97;;;-141.02;100.00
8477;BME280;4275;42.854;23.222;2022-07-15T00:41:40;55844.97;;;-141.02;100.00
8477;BME280;4275;42.854;23.222;2022-07-15T00:44:07;55844.97;;;-141.02;100.00
8477;BME280;4275;42.854;23.222;2022-07-15T00:46:35;55844.97;;;-141.02;100.00
8477;BME280;4275;42.854;23.222;2022-07-15T00:49:04;55844.97;;;-141.02;100.00
8477;BME280;4275;42.854;23.222;2022-07-15T00:51:33;55844.97;;;-141.02;100.00
8477;BME280;4275;42.854;23.222;2022-07-15T00:54:04;55844.97;;;-141.02;100.00
8477;BME280;4275;42.854;23.222;2022-07-15T00:56:34;55844.97;;;-141.02;100.00
8477;BME280;4275;42.854;23.222;2022-07-15T00:59:05;55844.97;;;-141.02;100.00
8477;BME280;4275;42.854;23.222;2022-07-15T01:01:33;55844.97;;;-141.02;100.00
8477;BME280;4275;42.854;23.222;2022-07-15T01:04:02;55844.97;;;-141.02;100.00
8477;BME280;4275;42.854;23.222;2022-07-15T01:06:30;55844.97;;;-141.02;100.00
8477;BME280;4275;42.854;23.222;2022-07-15T01:08:57;55844.97;;;-141.02;100.00
8477;BME280;4275;42.854;23.222;2022-07-15T01:11:25;55844.97;;;-141.02;100.00
8477;BME280;4275;42.854;23.222;2022-07-15T01:13:52;55844.97;;;-141.02;100.00
8477;BME280;4275;42.854;23.222;2022-07-15T01:16:21;55844.97;;;-141.02;100.00
8477;BME280;4275;42.854;23.222;2022-07-15T01:18:48;55844.97;;;-141.02;100.00
8477;BME280;4275;42.854;23.222;2022-07-15T01:21:17;55844.97;;;-141.02;100.00
8477;BME280;4275;42.854;23.222;2022-07-15T01:23:44;55844.97;;;-141.02;100.00
8477;BME280;4275;42.854;23.222;2022-07-15T01:26:11;55844.97;;;-141.02;100.00
8477;BME280;4275;42.854;23.222;2022-07-15T01:28:38;55844.97;;;-141.02;100.00
8477;BME280;4275;42.854;23.222;2022-07-15T01:31:06;55844.97;;;-141.02;100.00
8477;BME280;4275;42.854;23.222;2022-07-15T01:33:35;55844.97;;;-141.02;100.00
8477;BME280;4275;42.854;23.222;2022-07-15T01:36:02;55844.97;;;-141.02;100.00
8477;BME280;4275;42.854;23.222;2022-07-15T01:38:31;55844.97;;;-141.02;100.00
8477;BME280;4275;42.854;23.222;2022-07-15T01:40:58;55844.97;;;-141.02;100.00
8477;BME280;4275;42.854;23.222;2022-07-15T01:43:25;55844.97;;;-141.02;100.00
8477;BME280;4275;42.854;23.222;2022-07-15T01:45:52;55844.97;;;-141.02;100.00
8477;BME280;4275;42.854;23.222;2022-07-15T01:48:19;55844.97;;;-141.02;100.00
8477;BME280;4275;42.854;23.222;2022-07-15T01:51:03;55844.97;;;-141.02;100.00
8477;BME280;4275;42.854;23.222;2022-07-15T01:53:31;55844.97;;;-141.02;100.00
8477;BME280;4275;42.854;23.222;2022-07-15T01:55:58;55844.97;;;-141.02;100.00
8477;BME280;4275;42.854;23.222;2022-07-15T01:58:25;55844.97;;;-141.02;100.00
8477;BME280;4275;42.854;23.222;2022-07-15T02:00:52;55844.97;;;-141.02;100.00
8477;BME280;4275;42.854;23.222;2022-07-15T02:03:20;55844.97;;;-141.02;100.00
8477;BME280;4275;42.854;23.222;2022-07-15T02:05:47;55844.97;;;-141.02;100.00
8477;BME280;4275;42.854;23.222;2022-07-15T02:08:14;55844.97;;;-141.02;100.00
8477;BME280;4275;42.854;23.222;2022-07-15T02:10:42;55844.97;;;-141.02;100.00
8477;BME280;4275;42.854;23.222;2022-07-15T02:13:10;55844.97;;;-141.02;100.00
8477;BME280;4275;42.854;23.222;2022-07-15T02:15:38;55844.97;;;-141.02;100.00
8477;BME280;4275;42.854;23.222;2022-07-15T02:18:07;55844.97;;;-141.02;100.00
8477;BME280;4275;42.854;23.222;2022-07-15T02:20:36;55844.97;;;-141.02;100.00
8477;BME280;4275;42.854;23.222;2022-07-15T02:23:03;55844.97;;;-141.02;100.00
8477;BME280;4275;42.854;23.222;2022-07-15T02:25:32;55844.97;;;-141.02;100.00
8477;BME280;4275;42.854;23.222;2022-07-15T02:28:02;55844.97;;;-141.02;100.00
8477;BME280;4275;42.854;23.222;2022-07-15T02:30:32;55844.97;;;-141.02;100.00
8477;BME280;4275;42.854;23.222;2022-07-15T02:33:00;55844.97;;;-141.02;100.00
8477;BME280;4275;42.854;23.222;2022-07-15T02:35:27;55844.97;;;-141.02;100.00
8477;BME280;4275;42.854;23.222;2022-07-15T02:37:55;55844.97;;;-141.02;100.00
8477;BME280;4275;42.854;23.222;2022-07-15T02:40:22;55844.97;;;-141.02;100.00
8477;BME280;4275;42.854;23.222;2022-07-15T02:42:51;55844.97;;;-141.02;100.00
8477;BME280;4275;42.854;23.222;2022-07-15T02:45:21;55844.97;;;-141.02;100.00
8477;BME280;4275;42.854;23.222;2022-07-15T02:47:49;55844.97;;;-141.02;100.00
8477;BME280;4275;42.854;23.222;2022-07-15T02:50:17;55844.97;;;-141.02;100.00
8477;BME280;4275;42.854;23.222;2022-07-15T02:52:45;55844.97;;;-141.02;100.00
8477;BME280;4275;42.854;23.222;2022-07-15T02:55:13;55844.97;;;-141.02;100.00
8477;BME280;4275;42.854;23.222;2022-07-15T02:57:41;55844.97;;;-141.02;100.00
8477;BME280;4275;42.854;23.222;2022-07-15T03:00:10;55844.97;;;-141.02;100.00
8477;BME280;4275;42.854;23.222;2022-07-15T03:02:40;55844.97;;;-141.02;100.00
8477;BME280;4275;42.854;23.222;2022-07-15T03:05:08;55844.97;;;-141.02;100.00
8477;BME280;4275;42.854;23.222;2022-07-15T03:07:35;55844.97;;;-141.02;100.00
8477;BME280;4275;42.854;23.222;2022-07-15T03:10:03;55844.97;;;-141.02;100.00
8477;BME280;4275;42.854;23.222;2022-07-15T03:12:30;55844.97;;;-141.02;100.00
8477;BME280;4275;42.854;23.222;2022-07-15T03:14:58;55844.97;;;-141.02;100.00
8477;BME280;4275;42.854;23.222;2022-07-15T03:17:25;55844.97;;;-141.02;100.00
8477;BME280;4275;42.854;23.222;2022-07-15T03:19:54;55844.97;;;-141.02;100.00
8477;BME280;4275;42.854;23.222;2022-07-15T03:22:22;55844.97;;;-141.02;100.00
8477;BME280;4275;42.854;23.222;2022-07-15T03:24:49;55844.97;;;-141.02;100.00
8477;BME280;4275;42.854;23.222;2022-07-15T03:27:16;55844.97;;;-141.02;100.00
8477;BME280;4275;42.854;23.222;2022-07-15T03:29:44;55844.97;;;-141.02;100.00
8477;BME280;4275;42.854;23.222;2022-07-15T03:32:11;55844.97;;;-141.02;100.00
8477;BME280;4275;42.854;23.222;2022-07-15T03:34:41;55844.97;;;-141.02;100.00
8477;BME280;4275;42.854;23.222;2022-07-15T03:37:10;55844.97;;;-141.02;100.00
8477;BME280;4275;42.854;23.222;2022-07-15T03:39:37;55844.97;;;-141.02;100.00
8477;BME280;4275;42.854;23.222;2022-07-15T03:42:05;55844.97;;;-141.02;100.00
8477;BME280;4275;42.854;23.222;2022-07-15T03:44:32;55844.97;;;-141.02;100.00
8477;BME280;4275;42.854;23.222;2022-07-15T03:46:59;55844.97;;;-141.02;100.00
8477;BME280;4275;42.854;23.222;2022-07-15T03:49:26;55844.97;;;-141.02;100.00
8477;BME280;4275;42.854;23.222;2022-07-15T03:51:53;55844.97;;;-141.02;100.00
8477;BME280;4275;42.854;23.222;2022-07-15T03:54:21;55844.97;;;-141.02;100.00
8477;BME280;4275;42.854;23.222;2022-07-15T03:56:48;55844.97;;;-141.02;100.00
8477;BME280;4275;42.854;23.222;2022-07-15T03:59:16;55844.97;;;-141.02;100.00
8477;BME280;4275;42.854;23.222;2022-07-15T04:01:43;55844.97;;;-141.02;100.00
8477;BME280;4275;42.854;23.222;2022-07-15T04:04:10;55844.97;;;-141.02;100.00
8477;BME280;4275;42.854;23.222;2022-07-15T04:06:37;55844.97;;;-141.02;100.00
8477;BME280;4275;42.854;23.222;2022-07-15T04:09:04;55844.97;;;-141.02;100.00
8477;BME280;4275;42.854;23.222;2022-07-15T04:11:32;55844.97;;;-141.02;100.00
8477;BME280;4275;42.854;23.222;2022-07-15T04:13:59;55844.97;;;-141.02;100.00
8477;BME280;4275;42.854;23.222;2022-07-15T04:16:26;55844.97;;;-141.02;100.00
8477;BME280;4275;42.854;23.222;2022-07-15T04:18:54;55844.97;;;-141.02;100.00
8477;BME280;4275;42.854;23.222;2022-07-15T04:21:21;55844.97;;;-141.02;100.00
8477;BME280;4275;42.854;23.222;2022-07-15T04:23:48;55844.97;;;-141.02;100.00
8477;BME280;4275;42.854;23.222;2022-07-15T04:26:15;55844.97;;;-141.02;100.00
8477;BME280;4275;42.854;23.222;2022-07-15T04:28:43;55844.97;;;-141.02;100.00
8477;BME280;4275;42.854;23.222;2022-07-15T04:31:11;55844.97;;;-141.02;100.00
8477;BME280;4275;42.854;23.222;2022-07-15T04:33:38;55844.97;;;-141.02;100.00
8477;BME280;4275;42.854;23.222;2022-07-15T04:36:05;55844.97;;;-141.02;100.00
8477;BME280;4275;42.854;23.222;2022-07-15T04:38:32;55844.97;;;-141.02;100.00
8477;BME280;4275;42.854;23.222;2022-07-15T04:40:59;55844.97;;;-141.02;100.00
8477;BME280;4275;42.854;23.222;2022-07-15T04:43:26;55844.97;;;-141.02;100.00
8477;BME280;4275;42.854;23.222;2022-07-15T04:45:54;55844.97;;;-141.02;100.00
8477;BME280;4275;42.854;23.222;2022-07-15T04:48:22;55844.97;;;-141.02;100.00
8477;BME280;4275;42.854;23.222;2022-07-15T04:51:06;55844.97;;;-141.02;100.00
8477;BME280;4275;42.854;23.222;2022-07-15T04:53:33;55844.97;;;-141.02;100.00
8477;BME280;4275;42.854;23.222;2022-07-15T04:56:00;55844.97;;;-141.02;100.00
8477;BME280;4275;42.854;23.222;2022-07-15T04:58:27;55844.97;;;-141.02;100.00
8477;BME280;4275;42.854;23.222;2022-07-15T05:00:55;55844.97;;;-141.02;100.00
8477;BME280;4275;42.854;23.222;2022-07-15T05:03:22;55844.97;;;-141.02;100.00
8477;BME280;4275;42.854;23.222;2022-07-15T05:05:50;55844.97;;;-141.02;100.00
8477;BME280;4275;42.854;23.222;2022-07-15T05:08:17;55844.97;;;-141.02;100.00
8477;BME280;4275;42.854;23.222;2022-07-15T05:10:46;55844.97;;;-141.02;100.00
8477;BME280;4275;42.854;23.222;2022-07-15T05:13:13;55844.97;;;-141.02;100.00
8477;BME280;4275;42.854;23.222;2022-07-15T05:15:40;55844.97;;;-141.02;100.00
8477;BME280;4275;42.854;23.222;2022-07-15T05:18:08;55844.97;;;-141.02;100.00
8477;BME280;4275;42.854;23.222;2022-07-15T05:20:35;55844.97;;;-141.02;100.00
8477;BME280;4275;42.854;23.222;2022-07-15T05:23:02;55844.97;;;-141.02;100.00
8477;BME280;4275;42.854;23.222;2022-07-15T05:25:29;55844.97;;;-141.02;100.00
8477;BME280;4275;42.854;23.222;2022-07-15T05:27:56;55844.97;;;-141.02;100.00
8477;BME280;4275;42.854;23.222;2022-07-15T05:30:23;55844.97;;;-141.02;100.00
8477;BME280;4275;42.854;23.222;2022-07-15T05:32:50;55844.97;;;-141.02;100.00
8477;BME280;4275;42.854;23.222;2022-07-15T05:35:19;55844.97;;;-141.02;100.00
8477;BME280;4275;42.854;23.222;2022-07-15T05:37:46;55844.97;;;-141.02;100.00
8477;BME280;4275;42.854;23.222;2022-07-15T05:40:14;55844.97;;;-141.02;100.00
8477;BME280;4275;42.854;23.222;2022-07-15T05:42:41;55844.97;;;-141.02;100.00
8477;BME280;4275;42.854;23.222;2022-07-15T05:45:09;55844.97;;;-141.02;100.00
8477;BME280;4275;42.854;23.222;2022-07-15T05:47:37;55844.97;;;-141.02;100.00
8477;BME280;4275;42.854;23.222;2022-07-15T05:50:04;55844.97;;;-141.02;100.00
8477;BME280;4275;42.854;23.222;2022-07-15T05:52:33;55844.97;;;-141.02;100.00
8477;BME280;4275;42.854;23.222;2022-07-15T05:55:00;55844.97;;;-141.02;100.00
8477;BME280;4275;42.854;23.222;2022-07-15T05:57:27;55844.97;;;-141.02;100.00
8477;BME280;4275;42.854;23.222;2022-07-15T05:59:54;55844.97;;;-141.02;100.00
8477;BME280;4275;42.854;23.222;2022-07-15T06:02:21;55844.97;;;-141.02;100.00
8477;BME280;4275;42.854;23.222;2022-07-15T06:04:48;55844.97;;;-141.02;100.00
8477;BME280;4275;42.854;23.222;2022-07-15T06:07:15;55844.97;;;-141.02;100.00
8477;BME280;4275;42.854;23.222;2022-07-15T06:09:44;55844.97;;;-141.02;100.00
8477;BME280;4275;42.854;23.222;2022-07-15T06:12:11;55844.97;;;-141.02;100.00
8477;BME280;4275;42.854;23.222;2022-07-15T06:14:38;55844.97;;;-141.02;100.00
8477;BME280;4275;42.854;23.222;2022-07-15T06:17:05;55844.97;;;-141.02;100.00
8477;BME280;4275;42.854;23.222;2022-07-15T06:19:32;55844.97;;;-141.02;100.00
8477;BME280;4275;42.854;23.222;2022-07-15T06:21:59;55844.97;;;-141.02;100.00
8477;BME280;4275;42.854;23.222;2022-07-15T06:24:26;55844.97;;;-141.02;100.00
8477;BME280;4275;42.854;23.222;2022-07-15T06:26:55;55844.97;;;-141.02;100.00
8477;BME280;4275;42.854;23.222;2022-07-15T06:29:22;55844.97;;;-141.02;100.00
8477;BME280;4275;42.854;23.222;2022-07-15T06:31:50;55844.97;;;-141.02;100.00
8477;BME280;4275;42.854;23.222;2022-07-15T06:34:17;55844.97;;;-141.02;100.00
8477;BME280;4275;42.854;23.222;2022-07-15T06:36:44;55844.97;;;-141.02;100.00
8477;BME280;4275;42.854;23.222;2022-07-15T06:39:11;55844.97;;;-141.02;100.00
8477;BME280;4275;42.854;23.222;2022-07-15T06:41:38;55844.97;;;-141.02;100.00
8477;BME280;4275;42.854;23.222;2022-07-15T06:44:06;55844.97;;;-141.02;100.00
8477;BME280;4275;42.854;23.222;2022-07-15T06:46:33;55844.97;;;-141.02;100.00
8477;BME280;4275;42.854;23.222;2022-07-15T06:49:00;55844.97;;;-141.02;100.00
8477;BME280;4275;42.854;23.222;2022-07-15T06:51:27;55844.97;;;-141.02;100.00
8477;BME280;4275;42.854;23.222;2022-07-15T06:53:55;55844.97;;;-141.02;100.00
8477;BME280;4275;42.854;23.222;2022-07-15T06:56:21;55844.97;;;-141.02;100.00
8477;BME280;4275;42.854;23.222;2022-07-15T06:58:48;55844.97;;;-141.02;100.00
8477;BME280;4275;42.854;23.222;2022-07-15T07:01:17;55844.97;;;-141.02;100.00
8477;BME280;4275;42.854;23.222;2022-07-15T07:03:44;55844.97;;;-141.02;100.00
8477;BME280;4275;42.854;23.222;2022-07-15T07:06:11;55844.97;;;-141.02;100.00
8477;BME280;4275;42.854;23.222;2022-07-15T07:08:38;55844.97;;;-141.02;100.00
8477;BME280;4275;42.854;23.222;2022-07-15T07:11:06;55844.97;;;-141.02;100.00
8477;BME280;4275;42.854;23.222;2022-07-15T07:13:33;55844.97;;;-141.02;100.00
8477;BME280;4275;42.854;23.222;2022-07-15T07:16:00;55844.97;;;-141.02;100.00
8477;BME280;4275;42.854;23.222;2022-07-15T07:18:28;55844.97;;;-141.02;100.00
8477;BME280;4275;42.854;23.222;2022-07-15T07:20:55;55844.97;;;-141.02;100.00
8477;BME280;4275;42.854;23.222;2022-07-15T07:23:22;55844.97;;;-141.02;100.00
8477;BME280;4275;42.854;23.222;2022-07-15T07:25:52;55844.97;;;-141.02;100.00
8477;BME280;4275;42.854;23.222;2022-07-15T07:28:19;55844.97;;;-141.02;100.00
8477;BME280;4275;42.854;23.222;2022-07-15T07:30:46;55844.97;;;-141.02;100.00
8477;BME280;4275;42.854;23.222;2022-07-15T07:33:15;55844.97;;;-141.02;100.00
8477;BME280;4275;42.854;23.222;2022-07-15T07:35:44;55844.97;;;-141.02;100.00
8477;BME280;4275;42.854;23.222;2022-07-15T07:38:12;55844.97;;;-141.02;100.00
8477;BME280;4275;42.854;23.222;2022-07-15T07:40:39;55844.97;;;-141.02;100.00
8477;BME280;4275;42.854;23.222;2022-07-15T07:43:06;55844.97;;;-141.02;100.00
8477;BME280;4275;42.854;23.222;2022-07-15T07:45:33;55844.97;;;-141.02;100.00
8477;BME280;4275;42.854;23.222;2022-07-15T07:48:00;55844.97;;;-141.02;100.00
8477;BME280;4275;42.854;23.222;2022-07-15T07:50:27;55844.97;;;-141.02;100.00
8477;BME280;4275;42.854;23.222;2022-07-15T07:52:56;55844.97;;;-141.02;100.00
8477;BME280;4275;42.854;23.222;2022-07-15T07:55:23;55844.97;;;-141.02;100.00
8477;BME280;4275;42.854;23.222;2022-07-15T07:57:51;55844.97;;;-141.02;100.00
8477;BME280;4275;42.854;23.222;2022-07-15T08:00:19;55844.97;;;-141.02;100.00
8477;BME280;4275;42.854;23.222;2022-07-15T08:02:47;55844.97;;;-141.02;100.00
8477;BME280;4275;42.854;23.222;2022-07-15T08:05:15;55844.97;;;-141.02;100.00
8477;BME280;4275;42.854;23.222;2022-07-15T08:07:42;55844.97;;;-141.02;100.00
8477;BME280;4275;42.854;23.222;2022-07-15T08:10:12;55844.97;;;-141.02;100.00
8477;BME280;4275;42.854;23.222;2022-07-15T08:12:39;55844.97;;;-141.02;100.00
8477;BME280;4275;42.854;23.222;2022-07-15T08:15:09;55844.97;;;-141.02;100.00
8477;BME280;4275;42.854;23.222;2022-07-15T08:17:37;55844.97;;;-141.02;100.00
8477;BME280;4275;42.854;23.222;2022-07-15T08:20:05;55844.97;;;-141.02;100.00
8477;BME280;4275;42.854;23.222;2022-07-15T08:22:33;55844.97;;;-141.02;100.00
8477;BME280;4275;42.854;23.222;2022-07-15T08:25:00;55844.97;;;-141.02;100.00
8477;BME280;4275;42.854;23.222;2022-07-15T08:27:28;55844.97;;;-141.02;100.00
8477;BME280;4275;42.854;23.222;2022-07-15T08:29:56;55844.97;;;-141.02;100.00
8477;BME280;4275;42.854;23.222;2022-07-15T08:32:23;55844.97;;;-141.02;100.00
8477;BME280;4275;42.854;23.222;2022-07-15T08:34:51;55844.97;;;-141.02;100.00
8477;BME280;4275;42.854;23.222;2022-07-15T08:37:18;55844.97;;;-141.02;100.00
8477;BME280;4275;42.854;23.222;2022-07-15T08:39:45;55844.97;;;-141.02;100.00
8477;BME280;4275;42.854;23.222;2022-07-15T08:42:12;55844.97;;;-141.02;100.00
8477;BME280;4275;42.854;23.222;2022-07-15T08:44:41;55844.97;;;-141.02;100.00
8477;BME280;4275;42.854;23.222;2022-07-15T08:47:09;55844.97;;;-141.02;100.00
8477;BME280;4275;42.854;23.222;2022-07-15T08:49:38;55844.97;;;-141.02;100.00
8477;BME280;4275;42.854;23.222;2022-07-15T08:52:06;55844.97;;;-141.02;100.00
8477;BME280;4275;42.854;23.222;2022-07-15T08:54:33;55844.97;;;-141.02;100.00
8477;BME280;4275;42.854;23.222;2022-07-15T08:57:01;55844.97;;;-141.02;100.00
8477;BME280;4275;42.854;23.222;2022-07-15T08:59:28;55844.97;;;-141.02;100.00
8477;BME280;4275;42.854;23.222;2022-07-15T09:01:57;55844.97;;;-141.02;100.00
8477;BME280;4275;42.854;23.222;2022-07-15T09:04:24;55844.97;;;-141.02;100.00
8477;BME280;4275;42.854;23.222;2022-07-15T09:06:51;55844.97;;;-141.02;100.00
8477;BME280;4275;42.854;23.222;2022-07-15T09:09:26;55844.97;;;-141.02;100.00
8477;BME280;4275;42.854;23.222;2022-07-15T09:11:55;80987.91;;;-141.02;47.72
8477;BME280;4275;42.854;23.222;2022-07-15T09:14:24;80941.31;;;-141.02;47.37
8477;BME280;4275;42.854;23.222;2022-07-15T09:17:22;80867.53;;;-141.02;46.77
8477;BME280;4275;42.854;23.222;2022-07-15T09:19:58;80834.53;;;-141.02;46.15
8477;BME280;4275;42.854;23.222;2022-07-15T09:22:26;80766.59;;;-141.02;45.60
8477;BME280;4275;42.854;23.222;2022-07-15T09:25:02;80708.34;;;-141.02;45.40
8477;BME280;4275;42.854;23.222;2022-07-15T09:27:31;80731.66;;;-141.02;45.68
8477;BME280;4275;42.854;23.222;2022-07-15T09:30:13;80716.13;;;-141.02;45.00
8477;BME280;4275;42.854;23.222;2022-07-15T09:32:59;80716.13;;;-141.02;45.00
8477;BME280;4275;42.854;23.222;2022-07-15T09:35:45;80696.69;;;-141.02;45.23
8477;BME280;4275;42.854;23.222;2022-07-15T09:38:31;80754.94;;;-141.02;45.57
8477;BME280;4275;42.854;23.222;2022-07-15T09:40:59;80871.41;;;-141.02;46.41
8477;BME280;4275;42.854;23.222;2022-07-15T09:43:27;80873.34;;;-141.02;47.18
8477;BME280;4275;42.854;23.222;2022-07-15T09:45:58;55844.97;;;-141.02;100.00
8477;BME280;4275;42.854;23.222;2022-07-15T09:48:27;55844.97;;;-141.02;100.00
8477;BME280;4275;42.854;23.222;2022-07-15T09:50:59;55844.97;;;-141.02;100.00
8477;BME280;4275;42.854;23.222;2022-07-15T09:53:27;55844.97;;;-141.02;100.00
8477;BME280;4275;42.854;23.222;2022-07-15T09:55:54;55844.97;;;-141.02;100.00
8477;BME280;4275;42.854;23.222;2022-07-15T09:58:22;55844.97;;;-141.02;100.00
8477;BME280;4275;42.854;23.222;2022-07-15T10:00:49;55844.97;;;-141.02;100.00
8477;BME280;4275;42.854;23.222;2022-07-15T10:03:18;55844.97;;;-141.02;100.00
8477;BME280;4275;42.854;23.222;2022-07-15T10:05:51;55844.97;;;-141.02;100.00
8477;BME280;4275;42.854;23.222;2022-07-15T10:08:20;55844.97;;;-141.02;100.00
8477;BME280;4275;42.854;23.222;2022-07-15T10:10:48;55844.97;;;-141.02;100.00
8477;BME280;4275;42.854;23.222;2022-07-15T10:13:39;55844.97;;;-141.02;100.00
8477;BME280;4275;42.854;23.222;2022-07-15T10:16:27;55844.97;;;-141.02;100.00
8477;BME280;4275;42.854;23.222;2022-07-15T10:19:05;55844.97;;;-141.02;100.00
8477;BME280;4275;42.854;23.222;2022-07-15T10:21:42;55844.97;;;-141.02;100.00
8477;BME280;4275;42.854;23.222;2022-07-15T10:24:24;55844.97;;;-141.02;100.00
8477;BME280;4275;42.854;23.222;2022-07-15T10:27:04;55844.97;;;-141.02;100.00
8477;BME280;4275;42.854;23.222;2022-07-15T10:29:32;55844.97;;;-141.02;100.00
8477;BME280;4275;42.854;23.222;2022-07-15T10:32:00;55844.97;;;-141.02;100.00
8477;BME280;4275;42.854;23.222;2022-07-15T10:34:32;55844.97;;;-141.02;100.00
8477;BME280;4275;42.854;23.222;2022-07-15T10:37:03;55844.97;;;-141.02;100.00
8477;BME280;4275;42.854;23.222;2022-07-15T10:40:02;55844.97;;;-141.02;100.00
8477;BME280;4275;42.854;23.222;2022-07-15T10:42:57;55844.97;;;-141.02;100.00
8477;BME280;4275;42.854;23.222;2022-07-15T10:45:25;55844.97;;;-141.02;100.00
8477;BME280;4275;42.854;23.222;2022-07-15T10:48:25;55844.97;;;-141.02;100.00
8477;BME280;4275;42.854;23.222;2022-07-15T10:50:53;55844.97;;;-141.02;100.00
8477;BME280;4275;42.854;23.222;2022-07-15T10:53:23;55844.97;;;-141.02;100.00
8477;BME280;4275;42.854;23.222;2022-07-15T10:55:51;55844.97;;;-141.02;100.00
8477;BME280;4275;42.854;23.222;2022-07-15T10:58:19;55844.97;;;-141.02;100.00
8477;BME280;4275;42.854;23.222;2022-07-15T11:00:46;55844.97;;;-141.02;100.00
8477;BME280;4275;42.854;23.222;2022-07-15T11:03:16;55844.97;;;-141.02;100.00
8477;BME280;4275;42.854;23.222;2022-07-15T11:06:03;55844.97;;;-141.02;100.00
8477;BME280;4275;42.854;23.222;2022-07-15T11:08:50;55844.97;;;-141.02;100.00
8477;BME280;4275;42.854;23.222;2022-07-15T11:11:45;80465.69;;;-141.02;44.42
8477;BME280;4275;42.854;23.222;2022-07-15T11:14:42;80428.81;;;-141.02;43.88
8477;BME280;4275;42.854;23.222;2022-07-15T11:17:10;80490.94;;;-141.02;44.88
8477;BME280;4275;42.854;23.222;2022-07-15T11:19:37;80382.25;;;-141.02;43.28
8477;BME280;4275;42.854;23.222;2022-07-15T11:22:05;80399.72;;;-141.02;43.68
8477;BME280;4275;42.854;23.222;2022-07-15T11:24:36;80465.69;;;-141.02;44.32
8477;BME280;4275;42.854;23.222;2022-07-15T11:27:03;80360.88;;;-141.02;44.39
8477;BME280;4275;42.854;23.222;2022-07-15T11:29:48;80430.75;;;-141.02;44.72
8477;BME280;4275;42.854;23.222;2022-07-15T11:32:16;80382.25;;;-141.02;43.98
8477;BME280;4275;42.854;23.222;2022-07-15T11:34:45;80362.81;;;-141.02;44.02
8477;BME280;4275;42.854;23.222;2022-07-15T11:37:13;80490.94;;;-141.02;44.79
8477;BME280;4275;42.854;23.222;2022-07-15T11:39:47;80471.53;;;-141.02;44.03
8477;BME280;4275;42.854;23.222;2022-07-15T11:42:18;80479.28;;;-141.02;44.73
8477;BME280;4275;42.854;23.222;2022-07-15T11:45:04;80506.47;;;-141.02;45.23
8477;BME280;4275;42.854;23.222;2022-07-15T11:47:31;80560.81;;;-141.02;45.68
8477;BME280;4275;42.854;23.222;2022-07-15T11:49:59;80487.06;;;-141.02;44.69
8477;BME280;4275;42.854;23.222;2022-07-15T11:52:26;80487.06;;;-141.02;44.69
8477;BME280;4275;42.854;23.222;2022-07-15T11:54:55;80448.22;;;-141.02;44.71
8477;BME280;4275;42.854;23.222;2022-07-15T11:57:23;80409.41;;;-141.02;44.29
8477;BME280;4275;42.854;23.222;2022-07-15T11:59:54;80378.34;;;-141.02;43.92
8477;BME280;4275;42.854;23.222;2022-07-15T12:02:23;80452.13;;;-141.02;44.36
8477;BME280;4275;42.854;23.222;2022-07-15T12:04:51;80597.69;;;-141.02;44.68
8477;BME280;4275;42.854;23.222;2022-07-15T12:07:19;80475.41;;;-141.02;45.22
8477;BME280;4275;42.854;23.222;2022-07-15T12:09:48;80588.00;;;-141.02;46.08
8477;BME280;4275;42.854;23.222;2022-07-15T12:12:17;80595.75;;;-141.02;45.98
8477;BME280;4275;42.854;23.222;2022-07-15T12:14:45;80428.81;;;-141.02;44.86
8477;BME280;4275;42.854;23.222;2022-07-15T12:17:14;80527.81;;;-141.02;45.17
8477;BME280;4275;42.854;23.222;2022-07-15T12:19:46;80549.16;;;-141.02;45.58
8477;BME280;4275;42.854;23.222;2022-07-15T12:22:14;80617.13;;;-141.02;45.86
8477;BME280;4275;42.854;23.222;2022-07-15T12:24:43;80327.88;;;-141.02;44.70
8477;BME280;4275;42.854;23.222;2022-07-15T12:27:11;80316.25;;;-141.02;44.16
8477;BME280;4275;42.854;23.222;2022-07-15T12:29:40;80343.41;;;-141.02;43.82
8477;BME280;4275;42.854;23.222;2022-07-15T12:32:10;80234.72;;;-141.02;43.42
8477;BME280;4275;42.854;23.222;2022-07-15T12:34:55;80267.72;;;-141.02;43.28
8477;BME280;4275;42.854;23.222;2022-07-15T12:37:25;80180.38;;;-141.02;42.71
8477;BME280;4275;42.854;23.222;2022-07-15T12:39:54;80164.84;;;-141.02;42.90
8477;BME280;4275;42.854;23.222;2022-07-15T12:42:21;80180.38;;;-141.02;42.43
8477;BME280;4275;42.854;23.222;2022-07-15T12:45:12;80232.78;;;-141.02;43.27
8477;BME280;4275;42.854;23.222;2022-07-15T12:48:00;80351.19;;;-141.02;44.07
8477;BME280;4275;42.854;23.222;2022-07-15T12:50:28;80716.13;;;-141.02;44.70
8477;BME280;4275;42.854;23.222;2022-07-15T12:52:55;80316.25;;;-141.02;44.21
8477;BME280;4275;42.854;23.222;2022-07-15T12:55:25;81110.22;;;-141.02;43.48